Time;durP1;ratioP1;P1;durP2;ratioP2;P2;SDS_P1;SDS_P2;PMS_P1;PMS_P2;Temp;Humidity;BMP_temperature;BMP_pressure;BME280_temperature;BME280_humidity;BME280_pressure;Samples;Min_cycle;Max_cycle;Signal;HPM_P1;HPM_P2
2023/07/11 00:01:07;;;;;;;3.15;1.13;;;18.40;99.90;;;;;;5023731;28;20049;-54
2023/07/11 00:03:33;;;;;;;6.88;1.60;;;18.50;99.90;;;;;;5023373;28;20116;-54
2023/07/11 00:06:05;;;;;;;6.63;1.52;;;18.50;99.90;;;;;;5023663;28;20532;-55
2023/07/11 00:08:31;;;;;;;3.70;1.45;;;18.50;99.90;;;;;;5023424;28;20041;-54
2023/07/11 00:10:57;;;;;;;3.42;1.20;;;18.50;99.90;;;;;;5023432;28;20049;-53
2023/07/11 00:13:23;;;;;;;4.22;1.60;;;18.40;99.90;;;;;;5022774;28;20060;-53
2023/07/11 00:16:07;;;;;;;4.00;1.55;;;18.40;99.90;;;;;;5005613;28;20229;-54
2023/07/11 00:18:33;;;;;;;4.47;1.30;;;18.50;99.90;;;;;;5023443;28;20572;-54
2023/07/11 00:20:59;;;;;;;4.72;1.55;;;18.40;99.90;;;;;;5023393;28;20048;-55
2023/07/11 00:23:25;;;;;;;3.78;1.38;;;18.40;99.90;;;;;;5023947;28;20041;-55
2023/07/11 00:25:51;;;;;;;6.13;1.50;;;18.40;99.90;;;;;;5022705;28;20520;-55
2023/07/11 00:28:17;;;;;;;9.13;1.50;;;18.40;99.90;;;;;;5022632;28;20239;-54
2023/07/11 00:30:43;;;;;;;4.40;1.75;;;18.40;99.90;;;;;;5023309;28;20132;-54
2023/07/11 00:33:10;;;;;;;3.95;1.30;;;18.40;99.90;;;;;;5022267;28;20120;-54
2023/07/11 00:35:37;;;;;;;5.43;1.50;;;18.40;99.90;;;;;;5023232;28;20048;-54
2023/07/11 00:38:04;;;;;;;4.80;1.55;;;18.30;99.90;;;;;;5022979;28;20511;-53
2023/07/11 00:40:30;;;;;;;4.40;1.40;;;18.30;99.90;;;;;;5023074;28;20513;-54
2023/07/11 00:43:00;;;;;;;6.28;1.48;;;18.30;99.90;;;;;;5021936;28;20046;-54
2023/07/11 00:45:54;;;;;;;3.63;1.30;;;18.30;99.90;;;;;;5023147;28;20042;-54
2023/07/11 00:48:23;;;;;;;4.72;1.30;;;18.30;99.90;;;;;;5022902;28;20942;-54
2023/07/11 00:50:50;;;;;;;4.97;1.55;;;18.30;99.90;;;;;;5022544;28;20141;-54
2023/07/11 00:53:17;;;;;;;4.22;1.52;;;18.30;99.90;;;;;;5004789;28;20127;-55
2023/07/11 00:55:43;;;;;;;4.60;1.55;;;18.30;99.90;;;;;;5021427;28;20144;-55
2023/07/11 00:58:09;;;;;;;4.93;1.58;;;18.20;99.90;;;;;;5004335;28;20415;-55
2023/07/11 01:00:35;;;;;;;6.53;1.90;;;18.20;99.90;;;;;;5022627;28;20041;-52
2023/07/11 01:03:01;;;;;;;4.13;1.60;;;18.30;99.90;;;;;;5022093;28;20189;-56
2023/07/11 01:05:26;;;;;;;5.57;1.88;;;18.20;99.90;;;;;;5022392;28;20041;-53
2023/07/11 01:07:52;;;;;;;5.22;1.52;;;18.20;99.90;;;;;;5022343;28;20083;-55
2023/07/11 01:10:18;;;;;;;5.03;1.67;;;18.20;99.90;;;;;;5022427;28;20038;-54
2023/07/11 01:12:47;;;;;;;3.15;1.30;;;18.20;99.90;;;;;;5020951;28;20046;-54
2023/07/11 01:15:14;;;;;;;5.32;1.77;;;18.20;99.90;;;;;;5022136;28;20539;-54
2023/07/11 01:17:40;;;;;;;4.90;1.88;;;18.20;99.90;;;;;;5037020;28;20094;-54
2023/07/11 01:20:09;;;;;;;5.70;1.60;;;18.20;99.90;;;;;;5041470;28;20071;-55
2023/07/11 01:22:37;;;;;;;6.30;1.80;;;18.20;99.90;;;;;;5042050;28;20444;-52
2023/07/11 01:25:11;;;;;;;4.55;1.77;;;18.20;99.90;;;;;;5042102;28;20047;-55
2023/07/11 01:27:39;;;;;;;7.45;1.90;;;18.20;99.90;;;;;;5040773;28;20041;-54
2023/07/11 01:30:07;;;;;;;6.50;1.95;;;18.20;99.90;;;;;;5041530;28;20045;-55
2023/07/11 01:32:33;;;;;;;4.30;1.40;;;18.20;99.90;;;;;;5034088;28;20044;-54
2023/07/11 01:34:58;;;;;;;3.13;1.77;;;18.20;99.90;;;;;;5021912;28;20037;-54
2023/07/11 01:37:24;;;;;;;5.88;1.80;;;18.30;99.90;;;;;;5004205;28;20388;-54
2023/07/11 01:39:50;;;;;;;4.80;1.70;;;18.30;99.90;;;;;;5022391;28;20034;-54
2023/07/11 01:42:16;;;;;;;4.22;1.58;;;18.30;99.90;;;;;;5024660;28;20048;-54
2023/07/11 01:44:41;;;;;;;5.47;1.60;;;18.30;99.90;;;;;;5020464;28;20056;-54
2023/07/11 01:47:08;;;;;;;6.32;1.95;;;18.30;99.90;;;;;;5021365;28;20042;-54
2023/07/11 01:49:34;;;;;;;6.60;1.90;;;18.30;99.90;;;;;;5021687;28;20045;-54
2023/07/11 01:52:20;;;;;;;2.85;1.52;;;18.30;99.90;;;;;;5021254;28;20122;-54
2023/07/11 01:54:47;;;;;;;4.57;1.50;;;18.30;99.90;;;;;;5022116;28;20042;-54
2023/07/11 01:57:13;;;;;;;6.35;1.80;;;18.20;99.90;;;;;;5021535;28;20087;-54
2023/07/11 01:59:39;;;;;;;6.40;2.00;;;18.20;99.90;;;;;;5019834;28;20419;-55
2023/07/11 02:02:06;;;;;;;6.40;1.80;;;18.20;99.90;;;;;;5021725;28;20483;-55
2023/07/11 02:04:33;;;;;;;6.80;1.98;;;18.20;99.90;;;;;;5021812;28;20120;-54
2023/07/11 02:06:59;;;;;;;4.05;1.60;;;18.20;99.90;;;;;;5038912;28;20110;-54
2023/07/11 02:09:24;;;;;;;3.90;1.60;;;18.20;99.90;;;;;;5041149;28;20045;-54
2023/07/11 02:11:50;;;;;;;4.47;1.80;;;18.20;99.90;;;;;;5040743;28;20621;-53
2023/07/11 02:14:18;;;;;;;8.60;1.95;;;18.20;99.90;;;;;;5039897;28;20052;-54
2023/07/11 02:16:45;;;;;;;6.10;1.98;;;18.20;99.90;;;;;;5040920;28;20037;-55
2023/07/11 02:19:13;;;;;;;4.82;1.58;;;18.20;99.90;;;;;;5041003;28;20052;-54
2023/07/11 02:21:39;;;;;;;4.88;1.50;;;18.20;99.90;;;;;;5041031;28;20052;-55
2023/07/11 02:24:08;;;;;;;5.07;1.60;;;18.20;99.90;;;;;;5040360;28;20045;-55
2023/07/11 02:26:33;;;;;;;4.28;1.70;;;18.20;99.90;;;;;;5041168;28;20041;-54
2023/07/11 02:28:59;;;;;;;4.13;1.85;;;18.20;99.90;;;;;;5022193;28;20095;-53
2023/07/11 02:31:25;;;;;;;7.03;1.65;;;18.20;99.90;;;;;;5040254;28;20045;-54
2023/07/11 02:33:50;;;;;;;3.80;1.42;;;18.20;99.90;;;;;;5022658;28;20480;-54
2023/07/11 02:36:16;;;;;;;4.07;1.73;;;18.20;99.90;;;;;;5040884;28;20036;-54
2023/07/11 02:38:42;;;;;;;3.95;1.65;;;18.20;99.90;;;;;;5040772;28;20123;-54
2023/07/11 02:41:07;;;;;;;4.70;2.15;;;18.10;99.90;;;;;;5040179;28;20116;-54
2023/07/11 02:43:33;;;;;;;7.05;2.08;;;18.10;99.90;;;;;;5040582;28;20115;-54
2023/07/11 02:45:59;;;;;;;5.60;1.60;;;18.10;99.90;;;;;;5040943;28;20045;-54
2023/07/11 02:48:26;;;;;;;4.80;1.73;;;18.00;99.90;;;;;;5040078;28;20550;-54
2023/07/11 02:50:51;;;;;;;7.43;1.83;;;18.10;99.90;;;;;;5040608;28;20044;-54
2023/07/11 02:53:17;;;;;;;4.03;1.60;;;18.00;99.90;;;;;;5040542;28;20602;-54
2023/07/11 02:55:43;;;;;;;8.27;1.90;;;18.00;99.90;;;;;;5040386;28;20323;-53
2023/07/11 02:58:09;;;;;;;5.90;1.80;;;17.90;99.90;;;;;;5038989;28;20079;-54
2023/07/11 03:00:35;;;;;;;9.23;1.90;;;18.00;99.90;;;;;;5040875;28;20249;-54
2023/07/11 03:03:01;;;;;;;6.22;1.90;;;17.90;99.90;;;;;;5040653;28;20128;-54
2023/07/11 03:05:27;;;;;;;4.20;1.83;;;17.90;99.90;;;;;;5039714;28;20597;-53
2023/07/11 03:07:52;;;;;;;6.88;1.60;;;17.90;99.90;;;;;;5022497;28;20515;-54
2023/07/11 03:10:18;;;;;;;6.75;1.90;;;17.90;99.90;;;;;;5039413;28;20048;-55
2023/07/11 03:12:44;;;;;;;5.80;2.10;;;17.80;99.90;;;;;;5019533;28;20050;-54
2023/07/11 03:15:09;;;;;;;8.68;2.20;;;17.80;99.90;;;;;;5019830;28;20065;-54
2023/07/11 03:17:35;;;;;;;6.78;2.20;;;17.80;99.90;;;;;;5021098;28;20050;-54
2023/07/11 03:20:01;;;;;;;4.03;1.98;;;17.70;99.90;;;;;;5006664;28;20042;-55
2023/07/11 03:22:27;;;;;;;5.13;2.08;;;17.70;99.90;;;;;;5024124;28;20072;-54
2023/07/11 03:24:53;;;;;;;9.00;2.10;;;17.80;99.90;;;;;;5023764;28;20245;-54
2023/07/11 03:27:19;;;;;;;5.78;2.15;;;17.70;99.90;;;;;;5022876;28;20053;-54
2023/07/11 03:29:45;;;;;;;6.47;2.05;;;17.60;99.90;;;;;;5023623;28;20124;-55
2023/07/11 03:32:11;;;;;;;5.43;2.05;;;17.60;99.90;;;;;;5005751;28;20085;-54
2023/07/11 03:34:37;;;;;;;6.50;1.98;;;17.60;99.90;;;;;;5024831;28;20045;-54
2023/07/11 03:37:03;;;;;;;6.85;2.05;;;17.60;99.90;;;;;;5006394;28;20369;-54
2023/07/11 03:39:28;;;;;;;8.57;2.20;;;17.60;99.90;;;;;;5023872;28;20042;-54
2023/07/11 03:41:54;;;;;;;7.88;2.20;;;17.60;99.90;;;;;;5023564;28;20068;-54
2023/07/11 03:44:20;;;;;;;7.03;2.50;;;17.60;99.90;;;;;;5022012;28;20037;-53
2023/07/11 03:46:45;;;;;;;9.18;2.03;;;17.60;99.90;;;;;;5024278;28;20037;-54
2023/07/11 03:49:11;;;;;;;8.07;2.45;;;17.60;99.90;;;;;;5005730;28;20115;-54
2023/07/11 03:51:36;;;;;;;5.95;2.40;;;17.50;99.90;;;;;;5024458;28;20034;-54
2023/07/11 03:54:03;;;;;;;6.00;2.25;;;17.70;99.90;;;;;;5024418;28;20344;-54
2023/07/11 03:56:29;;;;;;;10.32;2.38;;;17.60;99.90;;;;;;5023853;28;20046;-54
2023/07/11 03:58:54;;;;;;;7.85;2.40;;;17.60;99.90;;;;;;5022464;28;20064;-54
2023/07/11 04:01:20;;;;;;;7.15;2.17;;;17.50;99.90;;;;;;5023854;28;20037;-53
2023/07/11 04:03:46;;;;;;;6.50;2.35;;;17.50;99.90;;;;;;5023847;28;20056;-53
2023/07/11 04:06:12;;;;;;;7.10;2.20;;;17.50;99.90;;;;;;5023008;28;20042;-54
2023/07/11 04:08:38;;;;;;;6.90;2.72;;;17.60;99.90;;;;;;5023680;28;20049;-54
2023/07/11 04:11:03;;;;;;;8.18;2.60;;;17.60;99.90;;;;;;5023512;28;20046;-54
2023/07/11 04:13:29;;;;;;;10.85;2.65;;;17.60;99.90;;;;;;5022567;28;20046;-54
2023/07/11 04:15:55;;;;;;;6.82;2.50;;;17.60;99.90;;;;;;5023146;28;20275;-54
2023/07/11 04:18:20;;;;;;;5.70;2.42;;;17.60;99.90;;;;;;5023423;28;20124;-53
2023/07/11 04:20:46;;;;;;;5.55;2.45;;;17.60;99.90;;;;;;5023457;28;20042;-54
2023/07/11 04:23:13;;;;;;;6.78;2.60;;;17.70;99.90;;;;;;5022765;28;20512;-54
2023/07/11 04:25:39;;;;;;;6.57;2.17;;;17.70;99.90;;;;;;5023831;28;20056;-54
2023/07/11 04:28:05;;;;;;;5.47;2.38;;;17.70;99.90;;;;;;5022409;28;20259;-54
2023/07/11 04:30:32;;;;;;;5.43;2.35;;;17.70;99.90;;;;;;5021982;28;20474;-55
2023/07/11 04:32:58;;;;;;;6.70;2.67;;;17.90;99.90;;;;;;5022377;28;20116;-54
2023/07/11 04:35:24;;;;;;;8.15;2.67;;;17.80;99.90;;;;;;5023186;28;20107;-55
2023/07/11 04:37:49;;;;;;;7.28;2.30;;;17.90;99.90;;;;;;5023130;28;20125;-54
2023/07/11 04:40:15;;;;;;;6.70;2.78;;;18.00;99.90;;;;;;5022707;28;20582;-53
2023/07/11 04:42:41;;;;;;;7.15;2.75;;;18.10;99.90;;;;;;5022416;28;20072;-53
2023/07/11 04:45:08;;;;;;;6.88;2.65;;;18.20;99.90;;;;;;5023003;28;20489;-54
2023/07/11 04:47:34;;;;;;;6.18;2.88;;;18.20;99.90;;;;;;5022782;28;20570;-54
2023/07/11 04:50:00;;;;;;;6.18;2.83;;;18.20;99.90;;;;;;5022282;28;20038;-54
2023/07/11 04:52:26;;;;;;;8.80;3.00;;;18.20;99.90;;;;;;5022705;28;20123;-54
2023/07/11 04:54:55;;;;;;;7.78;3.35;;;18.30;99.90;;;;;;5022956;28;20115;-54
2023/07/11 04:57:21;;;;;;;6.55;3.30;;;18.40;99.90;;;;;;5021242;28;20381;-52
2023/07/11 04:59:47;;;;;;;7.55;3.08;;;18.40;99.90;;;;;;5022822;28;20121;-53
2023/07/11 05:02:13;;;;;;;9.30;3.58;;;18.40;99.90;;;;;;5022857;28;20389;-53
2023/07/11 05:04:39;;;;;;;6.45;3.28;;;18.40;99.90;;;;;;5022681;28;20341;-54
2023/07/11 05:07:05;;;;;;;7.13;3.20;;;18.40;99.90;;;;;;5003741;28;20487;-54
2023/07/11 05:09:32;;;;;;;8.75;3.45;;;18.40;99.90;;;;;;5022523;28;20045;-53
2023/07/11 05:11:57;;;;;;;5.75;3.10;;;18.50;99.90;;;;;;5021177;28;20755;-53
2023/07/11 05:14:24;;;;;;;7.78;3.22;;;18.70;99.90;;;;;;5021779;28;20045;-54
2023/07/11 05:16:49;;;;;;;8.10;3.28;;;19.00;99.90;;;;;;5022226;28;20435;-54
2023/07/11 05:19:15;;;;;;;6.72;2.92;;;19.30;99.90;;;;;;5023008;28;20049;-54
2023/07/11 05:21:41;;;;;;;8.65;2.95;;;19.50;99.90;;;;;;5022768;28;20254;-53
2023/07/11 05:24:07;;;;;;;6.70;3.47;;;19.80;99.90;;;;;;5003850;28;20267;-56
2023/07/11 05:26:33;;;;;;;8.48;3.47;;;19.90;99.90;;;;;;5022271;28;20052;-53
2023/07/11 05:28:59;;;;;;;9.48;3.03;;;20.00;99.90;;;;;;5021263;28;20447;-54
2023/07/11 05:31:25;;;;;;;10.05;3.55;;;20.10;99.90;;;;;;5021107;28;20566;-54
2023/07/11 05:33:53;;;;;;;9.07;3.50;;;20.30;99.90;;;;;;5021674;28;20130;-54
2023/07/11 05:38:50;;;;;;;7.45;3.42;;;20.60;99.90;;;;;;5021393;28;20119;-53
2023/07/11 05:41:16;;;;;;;8.07;3.28;;;20.70;99.90;;;;;;5033531;28;20041;-54
2023/07/11 05:43:42;;;;;;;8.27;3.38;;;21.00;99.90;;;;;;5020979;28;20352;-54
2023/07/11 05:46:08;;;;;;;7.18;3.20;;;21.00;99.90;;;;;;5021817;28;20571;-54
2023/07/11 05:48:33;;;;;;;5.95;2.88;;;20.90;99.90;;;;;;5020899;28;20500;-54
2023/07/11 05:51:07;;;;;;;9.90;3.20;;;20.60;99.90;;;;;;5021559;28;20038;-54
2023/07/11 05:53:33;;;;;;;8.23;3.08;;;20.50;99.90;;;;;;5021562;28;20041;-54
2023/07/11 05:55:59;;;;;;;6.70;3.15;;;20.50;99.90;;;;;;5020792;28;20045;-54
2023/07/11 05:58:26;;;;;;;6.90;3.22;;;20.60;99.90;;;;;;5020658;28;20045;-54
2023/07/11 06:00:52;;;;;;;8.85;2.92;;;21.10;99.90;;;;;;5021579;28;20052;-54
2023/07/11 06:03:19;;;;;;;8.13;3.58;;;21.10;99.90;;;;;;5020979;28;20479;-54
2023/07/11 06:05:45;;;;;;;8.00;2.85;;;21.00;99.90;;;;;;5021712;28;20084;-55
2023/07/11 06:08:12;;;;;;;6.65;2.80;;;21.20;99.90;;;;;;5021656;28;20088;-54
2023/07/11 06:10:38;;;;;;;8.50;3.00;;;21.60;99.90;;;;;;5021230;28;20173;-54
2023/07/11 06:13:04;;;;;;;6.45;3.15;;;21.50;99.90;;;;;;5019323;28;20057;-55
2023/07/11 06:15:30;;;;;;;5.38;2.90;;;21.40;99.90;;;;;;5021223;28;20098;-54
2023/07/11 06:17:55;;;;;;;6.72;2.70;;;21.30;99.90;;;;;;5020966;28;20123;-55
2023/07/11 06:20:21;;;;;;;6.72;2.92;;;21.30;99.90;;;;;;5020924;28;20478;-55
2023/07/11 06:22:46;;;;;;;5.68;2.88;;;21.40;99.90;;;;;;5003586;28;20071;-55
2023/07/11 06:25:12;;;;;;;8.52;3.05;;;21.70;99.70;;;;;;5020788;28;20041;-55
2023/07/11 06:27:38;;;;;;;6.97;2.70;;;22.00;99.30;;;;;;5020120;28;20049;-54
2023/07/11 06:30:04;;;;;;;8.90;3.22;;;22.30;98.50;;;;;;5020580;28;20049;-55
2023/07/11 06:32:30;;;;;;;7.00;2.85;;;22.70;98.10;;;;;;5020833;28;20041;-55
2023/07/11 06:34:55;;;;;;;6.22;2.92;;;22.80;97.60;;;;;;5020965;28;20346;-54
2023/07/11 06:37:21;;;;;;;5.97;2.80;;;23.00;97.50;;;;;;5023899;28;20052;-55
2023/07/11 06:39:46;;;;;;;6.03;2.42;;;23.20;97.10;;;;;;5031398;28;20056;-54
2023/07/11 06:42:12;;;;;;;10.25;2.78;;;23.40;97.00;;;;;;5019583;28;20042;-54
2023/07/11 06:44:38;;;;;;;6.18;2.95;;;23.40;96.20;;;;;;5020983;28;20069;-54
2023/07/11 06:47:04;;;;;;;5.95;3.08;;;23.10;96.30;;;;;;5002580;28;20558;-54
2023/07/11 06:49:30;;;;;;;5.55;2.95;;;23.00;96.80;;;;;;5020724;28;20046;-54
2023/07/11 06:51:55;;;;;;;6.55;2.63;;;22.90;96.90;;;;;;5020725;28;20121;-55
2023/07/11 06:54:21;;;;;;;11.75;3.15;;;23.30;96.80;;;;;;5020078;28;20507;-57
2023/07/11 06:56:47;;;;;;;7.35;2.95;;;23.50;96.40;;;;;;4985431;28;20072;-54
2023/07/11 06:59:21;;;;;;;8.50;2.60;;;23.30;96.20;;;;;;5020143;28;20496;-55
2023/07/11 07:01:47;;;;;;;;;;;23.30;96.40;;;;;;5037888;28;20046;-53
2023/07/11 07:04:14;;;;;;;7.10;2.80;;;23.20;96.60;;;;;;5039687;28;19931;-55
2023/07/11 07:06:40;;;;;;;7.25;3.30;;;23.10;96.60;;;;;;5039752;28;20049;-54
2023/07/11 07:09:06;;;;;;;6.45;2.75;;;23.10;96.50;;;;;;5040401;28;20071;-54
2023/07/11 07:11:32;;;;;;;5.57;3.03;;;23.00;96.60;;;;;;5039573;28;20049;-55
2023/07/11 07:13:58;;;;;;;9.05;3.25;;;23.00;96.90;;;;;;5040041;28;20536;-54
2023/07/11 07:16:24;;;;;;;4.35;2.67;;;23.00;97.00;;;;;;5040227;28;20060;-54
2023/07/11 07:18:50;;;;;;;6.45;3.20;;;23.30;96.80;;;;;;5040866;28;20128;-55
2023/07/11 07:21:15;;;;;;;6.18;2.83;;;23.60;96.50;;;;;;5039568;28;20120;-55
2023/07/11 07:23:41;;;;;;;4.63;2.45;;;24.00;96.40;;;;;;5040180;28;20480;-54
2023/07/11 07:26:06;;;;;;;10.75;3.17;;;24.30;95.90;;;;;;5040417;28;20056;-55
2023/07/11 07:28:36;;;;;;;5.10;2.83;;;24.20;95.90;;;;;;5038712;28;20399;-55
2023/07/11 07:31:05;;;;;;;5.53;2.70;;;24.10;95.80;;;;;;5040248;28;20033;-54
2023/07/11 07:33:31;;;;;;;5.97;2.75;;;23.90;95.50;;;;;;5039982;28;20048;-54
2023/07/11 07:36:03;;;;;;;6.72;2.85;;;23.80;95.80;;;;;;5040340;28;20056;-54
2023/07/11 07:38:29;;;;;;;5.57;2.50;;;23.70;96.20;;;;;;5040020;28;20045;-54
2023/07/11 07:40:57;;;;;;;6.00;2.95;;;23.60;96.40;;;;;;5027445;28;20041;-55
2023/07/11 07:43:23;;;;;;;4.95;2.83;;;23.70;96.30;;;;;;5019505;28;20416;-54
2023/07/11 07:45:54;;;;;;;6.20;2.75;;;23.80;96.20;;;;;;5022916;28;20117;-55
2023/07/11 07:48:20;;;;;;;5.82;2.80;;;23.80;96.10;;;;;;5037629;28;20119;-54
2023/07/11 07:50:46;;;;;;;6.55;2.80;;;23.90;96.40;;;;;;5040071;28;20033;-54
2023/07/11 07:53:13;;;;;;;7.63;2.72;;;23.90;96.20;;;;;;5038978;28;20051;-55
2023/07/11 07:55:39;;;;;;;6.32;2.85;;;24.00;96.20;;;;;;5038149;28;20230;-54
2023/07/11 07:58:06;;;;;;;4.35;2.90;;;24.00;96.30;;;;;;5032642;28;20037;-54
2023/07/11 08:00:32;;;;;;;5.07;2.90;;;24.00;96.00;;;;;;5039069;28;20059;-54
2023/07/11 08:02:57;;;;;;;5.40;3.00;;;23.90;95.80;;;;;;5039781;28;20510;-54
2023/07/11 08:05:23;;;;;;;6.72;2.78;;;23.90;95.90;;;;;;5036803;28;20097;-55
2023/07/11 08:07:49;;;;;;;6.53;2.80;;;23.90;96.30;;;;;;5023484;28;20033;-54
2023/07/11 08:10:16;;;;;;;6.82;3.20;;;23.90;96.00;;;;;;5022323;28;20045;-54
2023/07/11 08:12:42;;;;;;;8.10;2.92;;;23.90;96.10;;;;;;5022937;28;20166;-55
2023/07/11 08:15:09;;;;;;;5.40;2.70;;;23.90;96.40;;;;;;5023988;28;20037;-55
2023/07/11 08:17:34;;;;;;;5.53;3.20;;;24.00;96.20;;;;;;5022988;28;20046;-49
2023/07/11 08:20:00;;;;;;;7.30;2.72;;;24.10;96.00;;;;;;5036622;28;20506;-54
2023/07/11 08:22:26;;;;;;;5.80;2.97;;;24.30;95.90;;;;;;5043212;28;20080;-55
2023/07/11 08:24:51;;;;;;;5.82;3.08;;;24.30;95.70;;;;;;5043360;28;20381;-55
2023/07/11 08:27:17;;;;;;;5.32;2.88;;;24.40;95.90;;;;;;5041489;28;20657;-55
2023/07/11 08:29:45;;;;;;;6.32;2.90;;;24.40;96.20;;;;;;5043270;28;20094;-54
2023/07/11 08:32:15;;;;;;;6.88;2.83;;;24.50;95.90;;;;;;5025327;28;20491;-54
2023/07/11 08:34:41;;;;;;;6.13;2.55;;;24.60;96.10;;;;;;5042311;28;20057;-58
2023/07/11 08:37:08;;;;;;;4.93;2.63;;;24.60;95.80;;;;;;5042866;28;20052;-58
2023/07/11 08:39:35;;;;;;;6.20;2.85;;;24.60;96.10;;;;;;5042843;28;20421;-58
2023/07/11 08:42:06;;;;;;;5.57;3.08;;;24.50;96.20;;;;;;5041768;28;20037;-58
2023/07/11 08:44:45;;;;;;;11.15;3.03;;;24.60;96.00;;;;;;5042606;28;20064;-58
2023/07/11 08:47:30;;;;;;;10.15;3.13;;;24.80;96.20;;;;;;5043206;28;20232;-59
2023/07/11 08:50:05;;;;;;;7.43;3.03;;;25.00;96.00;;;;;;5043409;28;20075;-60
2023/07/11 08:52:32;;;;;;;4.88;2.65;;;25.20;95.50;;;;;;5042629;28;20388;-58
2023/07/11 08:55:30;;;;;;;8.32;2.80;;;25.40;95.00;;;;;;5042438;28;20128;-59
2023/07/11 08:58:15;;;;;;;9.27;3.40;;;25.60;95.20;;;;;;5042286;28;20045;-59
2023/07/11 09:00:44;;;;;;;7.43;2.80;;;25.80;94.70;;;;;;5042634;28;20049;-59
2023/07/11 09:03:26;;;;;;;6.47;2.05;;;25.80;94.90;;;;;;5042544;28;20041;-57
2023/07/11 09:06:03;;;;;;;5.18;2.67;;;25.80;94.40;;;;;;5024338;28;20487;-60
2023/07/11 09:08:29;;;;;;;7.05;2.90;;;25.80;94.40;;;;;;5042968;28;20040;-60
2023/07/11 09:11:00;;;;;;;6.55;2.70;;;25.90;94.40;;;;;;5041466;28;20068;-59
2023/07/11 09:13:41;;;;;;;6.88;2.97;;;26.00;94.20;;;;;;5041590;28;20127;-60
2023/07/11 09:16:29;;;;;;;8.50;2.53;;;26.10;93.80;;;;;;5040941;28;20261;-59
2023/07/11 09:19:38;;;;;;;7.07;2.55;;;26.10;93.90;;;;;;5042186;28;20049;-60
2023/07/11 09:22:28;;;;;;;6.25;2.65;;;26.40;93.40;;;;;;5042297;28;20045;-54
2023/07/11 09:25:18;;;;;;;7.20;2.88;;;26.50;93.50;;;;;;5041931;28;20139;-53
2023/07/11 09:27:52;;;;;;;5.45;2.10;;;26.70;93.40;;;;;;5012058;28;20095;-55
2023/07/11 09:30:40;;;;;;;6.80;2.95;;;26.80;93.90;;;;;;5042312;28;20155;-54
2023/07/11 09:33:19;;;;;;;6.93;2.92;;;27.10;92.30;;;;;;5041614;28;20041;-53
2023/07/11 09:35:46;;;;;;;6.82;2.25;;;27.20;92.60;;;;;;5041862;28;20439;-55
2023/07/11 09:38:37;;;;;;;7.60;2.67;;;27.20;92.50;;;;;;5041909;28;20087;-55
2023/07/11 09:41:10;;;;;;;6.55;2.10;;;27.40;92.00;;;;;;5042346;28;20045;-53
2023/07/11 09:43:36;;;;;;;5.88;2.30;;;27.50;91.80;;;;;;5041815;28;20045;-53
2023/07/11 09:46:01;;;;;;;4.93;2.30;;;27.50;91.50;;;;;;5041375;28;20532;-54
2023/07/11 09:48:32;;;;;;;5.72;2.28;;;27.50;92.30;;;;;;5042066;28;20052;-54
2023/07/11 09:50:58;;;;;;;5.05;2.10;;;27.60;91.70;;;;;;5041527;28;20131;-54
2023/07/11 09:53:26;;;;;;;5.50;2.10;;;27.60;91.90;;;;;;5041213;28;20127;-54
2023/07/11 09:55:58;;;;;;;3.40;1.90;;;27.70;92.10;;;;;;5041159;28;20083;-55
2023/07/11 09:58:28;;;;;;;8.75;2.55;;;27.80;91.30;;;;;;5040171;28;20155;-54
2023/07/11 10:00:58;;;;;;;4.18;2.15;;;28.10;91.60;;;;;;5040710;28;20041;-55
2023/07/11 10:03:27;;;;;;;8.85;2.70;;;28.10;90.80;;;;;;5023179;28;20492;-55
2023/07/11 10:05:54;;;;;;;5.10;2.30;;;28.20;90.10;;;;;;5040745;28;20428;-54
2023/07/11 10:08:23;;;;;;;3.60;2.00;;;28.10;89.90;;;;;;5040589;28;20128;-55
2023/07/11 10:10:55;;;;;;;5.00;1.80;;;28.10;90.20;;;;;;5023053;28;20049;-55
2023/07/11 10:13:22;;;;;;;4.32;2.17;;;28.00;89.20;;;;;;5040234;28;20049;-54
2023/07/11 10:15:52;;;;;;;5.10;2.20;;;27.90;87.40;;;;;;5040701;28;20033;-54
2023/07/11 10:18:25;;;;;;;5.28;2.30;;;27.90;88.90;;;;;;5041002;28;20045;-55
2023/07/11 10:20:56;;;;;;;4.65;2.08;;;28.00;89.80;;;;;;5040978;28;20791;-54
2023/07/11 10:23:24;;;;;;;3.15;2.10;;;28.10;89.10;;;;;;5040322;28;20103;-55
2023/07/11 10:26:23;;;;;;;7.03;1.90;;;28.10;87.70;;;;;;5040899;28;20037;-54
2023/07/11 10:28:56;;;;;;;7.68;2.28;;;28.10;88.60;;;;;;5039790;28;20045;-55
2023/07/11 10:31:38;;;;;;;5.43;2.42;;;28.10;89.40;;;;;;5040568;28;20052;-54
2023/07/11 10:34:15;;;;;;;6.35;2.53;;;28.10;88.90;;;;;;5040557;28;20048;-54
2023/07/11 10:36:53;;;;;;;12.23;2.30;;;28.30;89.00;;;;;;5040771;28;20080;-53
2023/07/11 10:39:27;;;;;;;9.25;2.67;;;28.40;89.70;;;;;;5040163;28;20568;-54
2023/07/11 10:42:22;;;;;;;4.43;2.58;;;28.40;89.40;;;;;;5040092;28;20044;-54
2023/07/11 10:44:52;;;;;;;6.25;2.70;;;28.50;89.70;;;;;;5040714;28;20281;-55
2023/07/11 10:47:27;;;;;;;7.13;2.17;;;28.70;89.70;;;;;;5040578;28;20224;-54
2023/07/11 10:49:56;;;;;;;5.53;2.10;;;28.70;89.00;;;;;;5040002;28;20055;-53
2023/07/11 10:52:24;;;;;;;4.80;2.50;;;28.80;89.30;;;;;;5040432;28;20037;-55
2023/07/11 10:55:15;;;;;;;3.75;1.75;;;28.90;88.40;;;;;;5040352;28;20076;-55
2023/07/11 10:57:50;;;;;;;8.73;2.50;;;29.00;84.70;;;;;;5039319;28;20045;-55
2023/07/11 11:00:25;;;;;;;7.05;2.05;;;28.80;86.20;;;;;;5040560;28;20483;-55
2023/07/11 11:03:34;;;;;;;5.00;1.88;;;28.80;86.70;;;;;;5040247;28;20045;-54
2023/07/11 11:06:29;;;;;;;6.65;2.00;;;28.90;85.80;;;;;;5040123;28;20057;-55
2023/07/11 11:09:07;;;;;;;4.68;2.30;;;28.90;85.30;;;;;;5039644;28;20045;-55
2023/07/11 11:11:45;;;;;;;10.35;2.10;;;29.10;85.60;;;;;;5039975;28;20083;-54
2023/07/11 11:14:31;;;;;;;5.22;2.00;;;29.20;85.90;;;;;;5021812;28;20049;-56
2023/07/11 11:17:15;;;;;;;4.97;1.88;;;29.30;84.90;;;;;;5039994;28;20052;-56
2023/07/11 11:20:00;;;;;;;5.82;2.33;;;29.10;85.40;;;;;;5039422;28;20064;-52
2023/07/11 11:22:44;;;;;;;;;;;29.40;85.50;;;;;;5040388;28;20128;-53
2023/07/11 11:25:41;;;;;;;6.28;1.95;;;29.40;84.50;;;;;;5039707;28;19921;-53
2023/07/11 11:28:18;;;;;;;6.53;1.60;;;29.60;84.10;;;;;;5022423;28;20076;-55
2023/07/11 11:30:48;;;;;;;3.47;1.50;;;29.70;83.60;;;;;;5040344;28;20045;-52
2023/07/11 11:33:40;;;;;;;4.47;1.90;;;29.60;84.20;;;;;;5039872;28;20056;-53
2023/07/11 11:36:28;;;;;;;4.90;1.60;;;29.40;85.60;;;;;;5040288;28;20080;-53
2023/07/11 11:39:01;;;;;;;3.78;1.60;;;29.30;86.60;;;;;;5039865;28;20052;-53
2023/07/11 11:41:47;;;;;;;4.28;2.28;;;29.30;85.50;;;;;;5043146;28;20045;-53
2023/07/11 11:44:21;;;;;;;6.00;1.85;;;29.10;85.80;;;;;;5043343;28;20123;-54
2023/07/11 11:46:48;;;;;;;3.35;2.03;;;29.20;85.30;;;;;;5043754;28;20621;-54
2023/07/11 11:49:15;;;;;;;3.13;1.40;;;29.30;84.90;;;;;;5043478;28;20091;-55
2023/07/11 11:51:42;;;;;;;5.38;1.70;;;29.30;85.40;;;;;;5043044;28;20048;-52
2023/07/11 11:54:11;;;;;;;4.57;1.90;;;29.50;85.40;;;;;;5044491;28;20045;-55
2023/07/11 11:56:42;;;;;;;8.55;2.10;;;29.70;85.90;;;;;;5043017;28;20103;-54
2023/07/11 11:59:20;;;;;;;3.75;1.80;;;29.60;84.60;;;;;;5025134;28;20064;-54
2023/07/11 12:01:58;;;;;;;7.05;1.98;;;29.50;85.20;;;;;;5043907;28;20064;-54
2023/07/11 12:04:27;;;;;;;5.78;1.85;;;29.40;85.90;;;;;;5042833;28;20053;-55
2023/07/11 12:07:02;;;;;;;3.10;1.83;;;29.60;86.10;;;;;;5024903;28;20049;-55
2023/07/11 12:09:33;;;;;;;4.03;1.90;;;29.70;86.20;;;;;;5043255;28;20119;-53
2023/07/11 12:12:06;;;;;;;5.20;1.90;;;29.70;85.20;;;;;;5042215;28;20484;-54
2023/07/11 12:14:52;;;;;;;11.40;2.33;;;29.80;85.40;;;;;;5043476;28;20547;-54
2023/07/11 12:17:33;;;;;;;5.30;2.03;;;29.70;85.30;;;;;;5025404;28;20489;-55
2023/07/11 12:20:02;;;;;;;5.95;2.03;;;29.60;85.60;;;;;;5043085;28;20076;-54
2023/07/11 12:22:50;;;;;;;3.60;1.75;;;29.70;84.70;;;;;;5042139;28;20136;-54
2023/07/11 12:25:28;;;;;;;5.30;1.95;;;29.60;84.60;;;;;;5042256;28;20120;-51
2023/07/11 12:27:53;;;;;;;5.18;1.88;;;29.40;85.30;;;;;;5041783;28;20114;-52
2023/07/11 12:30:38;;;;;;;3.42;1.70;;;29.30;85.50;;;;;;5025374;28;20049;-50
2023/07/11 12:33:24;;;;;;;4.10;1.80;;;29.20;85.90;;;;;;5024694;28;20076;-52
2023/07/11 12:36:06;;;;;;;5.00;1.92;;;29.20;85.90;;;;;;5019378;28;20549;-50
2023/07/11 12:38:44;;;;;;;5.35;1.85;;;29.30;86.10;;;;;;5044329;28;20045;-51
2023/07/11 12:41:26;;;;;;;4.55;1.85;;;29.50;86.60;;;;;;5024124;28;20099;-48
2023/07/11 12:43:53;;;;;;;4.22;2.05;;;29.60;86.10;;;;;;5028691;28;20215;-52
2023/07/11 12:46:19;;;;;;;5.13;1.70;;;29.80;86.30;;;;;;5037866;28;20313;-51
2023/07/11 12:48:47;;;;;;;2.90;1.38;;;29.90;86.80;;;;;;5042868;28;20362;-49
2023/07/11 12:51:30;;;;;;;2.72;1.50;;;29.90;83.30;;;;;;5041565;28;20415;-50
2023/07/11 12:54:00;;;;;;;4.35;1.70;;;29.60;83.80;;;;;;5023978;28;20033;-52
2023/07/11 12:56:28;;;;;;;2.88;1.50;;;29.30;84.90;;;;;;5040939;28;20036;-51
2023/07/11 12:58:54;;;;;;;3.97;1.70;;;29.30;84.80;;;;;;5039579;28;20120;-54
2023/07/11 13:01:19;;;;;;;5.63;1.77;;;29.30;84.80;;;;;;5042694;28;20450;-53
2023/07/11 13:03:45;;;;;;;4.82;1.60;;;29.30;86.20;;;;;;5042625;28;20102;-53